sensor_id;sensor_type;location;lat;lon;timestamp;P1;durP1;ratioP1;P2;durP2;ratioP2
52512;SDS011;38422;53.172;6.974;2022-12-07T00:01:14;5.80;;;1.40;;
52512;SDS011;38422;53.172;6.974;2022-12-07T00:03:40;5.43;;;1.60;;
52512;SDS011;38422;53.172;6.974;2022-12-07T00:08:34;6.47;;;1.30;;
52512;SDS011;38422;53.172;6.974;2022-12-07T00:11:01;8.10;;;1.23;;
52512;SDS011;38422;53.172;6.974;2022-12-07T00:13:29;5.88;;;1.42;;
52512;SDS011;38422;53.172;6.974;2022-12-07T00:15:55;6.97;;;1.10;;
52512;SDS011;38422;53.172;6.974;2022-12-07T00:18:24;7.15;;;1.60;;
52512;SDS011;38422;53.172;6.974;2022-12-07T00:20:50;7.18;;;1.20;;
52512;SDS011;38422;53.172;6.974;2022-12-07T00:23:15;8.60;;;1.48;;
52512;SDS011;38422;53.172;6.974;2022-12-07T00:25:41;7.50;;;1.33;;
52512;SDS011;38422;53.172;6.974;2022-12-07T00:28:07;6.32;;;0.90;;
52512;SDS011;38422;53.172;6.974;2022-12-07T00:30:34;5.93;;;0.90;;
52512;SDS011;38422;53.172;6.974;2022-12-07T00:33:00;5.78;;;0.80;;
52512;SDS011;38422;53.172;6.974;2022-12-07T00:35:25;7.75;;;0.98;;
52512;SDS011;38422;53.172;6.974;2022-12-07T00:37:51;2.83;;;1.00;;
52512;SDS011;38422;53.172;6.974;2022-12-07T00:40:17;7.25;;;0.90;;
52512;SDS011;38422;53.172;6.974;2022-12-07T00:42:42;3.70;;;0.75;;
52512;SDS011;38422;53.172;6.974;2022-12-07T00:45:08;5.82;;;0.70;;
52512;SDS011;38422;53.172;6.974;2022-12-07T00:47:34;3.10;;;0.50;;
52512;SDS011;38422;53.172;6.974;2022-12-07T00:49:59;3.38;;;0.63;;
52512;SDS011;38422;53.172;6.974;2022-12-07T00:52:25;3.28;;;0.60;;
52512;SDS011;38422;53.172;6.974;2022-12-07T00:54:51;4.47;;;0.75;;
52512;SDS011;38422;53.172;6.974;2022-12-07T00:57:17;5.40;;;0.98;;
52512;SDS011;38422;53.172;6.974;2022-12-07T00:59:42;4.07;;;0.50;;
52512;SDS011;38422;53.172;6.974;2022-12-07T01:02:08;5.00;;;0.52;;
52512;SDS011;38422;53.172;6.974;2022-12-07T01:04:34;3.33;;;0.50;;
52512;SDS011;38422;53.172;6.974;2022-12-07T01:07:00;3.22;;;0.52;;
52512;SDS011;38422;53.172;6.974;2022-12-07T01:09:25;4.45;;;0.60;;
52512;SDS011;38422;53.172;6.974;2022-12-07T01:11:51;5.47;;;0.80;;
52512;SDS011;38422;53.172;6.974;2022-12-07T01:14:16;3.83;;;0.63;;
52512;SDS011;38422;53.172;6.974;2022-12-07T01:16:42;5.35;;;0.70;;
52512;SDS011;38422;53.172;6.974;2022-12-07T01:19:08;4.85;;;0.60;;
52512;SDS011;38422;53.172;6.974;2022-12-07T01:21:34;3.28;;;0.52;;
52512;SDS011;38422;53.172;6.974;2022-12-07T01:24:03;6.07;;;1.20;;
52512;SDS011;38422;53.172;6.974;2022-12-07T01:26:30;10.52;;;0.90;;
52512;SDS011;38422;53.172;6.974;2022-12-07T01:28:56;4.43;;;0.73;;
52512;SDS011;38422;53.172;6.974;2022-12-07T01:31:25;9.05;;;1.17;;
52512;SDS011;38422;53.172;6.974;2022-12-07T01:33:52;7.93;;;1.00;;
52512;SDS011;38422;53.172;6.974;2022-12-07T01:36:24;8.80;;;1.00;;
52512;SDS011;38422;53.172;6.974;2022-12-07T01:38:55;6.18;;;0.70;;
52512;SDS011;38422;53.172;6.974;2022-12-07T01:41:23;4.43;;;0.65;;
52512;SDS011;38422;53.172;6.974;2022-12-07T01:46:35;7.93;;;0.70;;
52512;SDS011;38422;53.172;6.974;2022-12-07T01:49:01;6.07;;;0.90;;
52512;SDS011;38422;53.172;6.974;2022-12-07T01:51:30;7.60;;;1.02;;
52512;SDS011;38422;53.172;6.974;2022-12-07T01:53:56;9.20;;;0.88;;
52512;SDS011;38422;53.172;6.974;2022-12-07T01:56:23;8.15;;;0.90;;
52512;SDS011;38422;53.172;6.974;2022-12-07T01:58:51;9.27;;;1.42;;
52512;SDS011;38422;53.172;6.974;2022-12-07T02:01:19;8.57;;;0.80;;
52512;SDS011;38422;53.172;6.974;2022-12-07T02:03:46;5.97;;;0.98;;
52512;SDS011;38422;53.172;6.974;2022-12-07T02:06:16;4.93;;;0.70;;
52512;SDS011;38422;53.172;6.974;2022-12-07T02:08:44;6.70;;;0.70;;
52512;SDS011;38422;53.172;6.974;2022-12-07T02:11:10;8.43;;;0.80;;
52512;SDS011;38422;53.172;6.974;2022-12-07T02:13:37;9.35;;;0.93;;
52512;SDS011;38422;53.172;6.974;2022-12-07T02:16:23;7.15;;;0.70;;
52512;SDS011;38422;53.172;6.974;2022-12-07T02:21:59;7.38;;;0.70;;
52512;SDS011;38422;53.172;6.974;2022-12-07T02:24:48;6.50;;;0.90;;
52512;SDS011;38422;53.172;6.974;2022-12-07T02:30:09;6.00;;;1.08;;
52512;SDS011;38422;53.172;6.974;2022-12-07T02:35:18;6.63;;;0.93;;
52512;SDS011;38422;53.172;6.974;2022-12-07T02:37:49;5.00;;;0.93;;
52512;SDS011;38422;53.172;6.974;2022-12-07T02:43:02;5.07;;;0.60;;
52512;SDS011;38422;53.172;6.974;2022-12-07T02:45:34;4.22;;;0.40;;
52512;SDS011;38422;53.172;6.974;2022-12-07T02:48:03;6.63;;;0.60;;
52512;SDS011;38422;53.172;6.974;2022-12-07T02:50:29;3.30;;;0.47;;
52512;SDS011;38422;53.172;6.974;2022-12-07T02:52:55;4.85;;;0.50;;
52512;SDS011;38422;53.172;6.974;2022-12-07T02:55:23;6.45;;;0.63;;
52512;SDS011;38422;53.172;6.974;2022-12-07T02:58:06;5.00;;;0.60;;
52512;SDS011;38422;53.172;6.974;2022-12-07T03:00:37;5.10;;;0.70;;
52512;SDS011;38422;53.172;6.974;2022-12-07T03:03:30;2.72;;;0.70;;
52512;SDS011;38422;53.172;6.974;2022-12-07T03:06:06;7.65;;;0.77;;
52512;SDS011;38422;53.172;6.974;2022-12-07T03:09:08;6.18;;;0.60;;
52512;SDS011;38422;53.172;6.974;2022-12-07T03:11:48;7.28;;;0.90;;
52512;SDS011;38422;53.172;6.974;2022-12-07T03:14:30;3.70;;;0.57;;
52512;SDS011;38422;53.172;6.974;2022-12-07T03:17:07;5.25;;;0.60;;
52512;SDS011;38422;53.172;6.974;2022-12-07T03:19:40;5.13;;;0.60;;
52512;SDS011;38422;53.172;6.974;2022-12-07T03:22:07;4.85;;;0.82;;
52512;SDS011;38422;53.172;6.974;2022-12-07T03:24:42;10.55;;;0.60;;
52512;SDS011;38422;53.172;6.974;2022-12-07T03:27:19;3.60;;;0.60;;
52512;SDS011;38422;53.172;6.974;2022-12-07T03:29:48;4.20;;;0.60;;
52512;SDS011;38422;53.172;6.974;2022-12-07T03:32:26;5.95;;;0.90;;
52512;SDS011;38422;53.172;6.974;2022-12-07T03:35:06;9.38;;;1.20;;
52512;SDS011;38422;53.172;6.974;2022-12-07T03:37:34;4.18;;;0.60;;
52512;SDS011;38422;53.172;6.974;2022-12-07T03:42:42;7.32;;;0.60;;
52512;SDS011;38422;53.172;6.974;2022-12-07T03:45:09;7.88;;;0.88;;
52512;SDS011;38422;53.172;6.974;2022-12-07T03:47:38;7.45;;;0.70;;
52512;SDS011;38422;53.172;6.974;2022-12-07T03:51:00;4.35;;;0.50;;
52512;SDS011;38422;53.172;6.974;2022-12-07T03:53:23;6.38;;;0.93;;
52512;SDS011;38422;53.172;6.974;2022-12-07T03:55:54;4.88;;;0.65;;
52512;SDS011;38422;53.172;6.974;2022-12-07T03:58:22;5.22;;;0.82;;
52512;SDS011;38422;53.172;6.974;2022-12-07T04:00:49;4.83;;;0.77;;
52512;SDS011;38422;53.172;6.974;2022-12-07T04:03:15;6.63;;;0.70;;
52512;SDS011;38422;53.172;6.974;2022-12-07T04:05:41;3.85;;;0.60;;
52512;SDS011;38422;53.172;6.974;2022-12-07T04:08:08;5.78;;;0.70;;
52512;SDS011;38422;53.172;6.974;2022-12-07T04:10:34;4.93;;;0.50;;
52512;SDS011;38422;53.172;6.974;2022-12-07T04:13:00;6.00;;;0.60;;
52512;SDS011;38422;53.172;6.974;2022-12-07T04:15:25;9.07;;;0.70;;
52512;SDS011;38422;53.172;6.974;2022-12-07T04:17:51;3.58;;;0.47;;
52512;SDS011;38422;53.172;6.974;2022-12-07T04:20:17;7.45;;;0.70;;
52512;SDS011;38422;53.172;6.974;2022-12-07T04:22:43;3.90;;;0.65;;
52512;SDS011;38422;53.172;6.974;2022-12-07T04:25:09;2.42;;;0.40;;
52512;SDS011;38422;53.172;6.974;2022-12-07T04:27:35;5.85;;;0.47;;
52512;SDS011;38422;53.172;6.974;2022-12-07T04:30:00;5.40;;;0.60;;
52512;SDS011;38422;53.172;6.974;2022-12-07T04:32:26;2.97;;;0.32;;
52512;SDS011;38422;53.172;6.974;2022-12-07T04:34:52;5.15;;;0.60;;
52512;SDS011;38422;53.172;6.974;2022-12-07T04:37:17;4.30;;;0.70;;
52512;SDS011;38422;53.172;6.974;2022-12-07T04:39:43;2.88;;;0.40;;
52512;SDS011;38422;53.172;6.974;2022-12-07T04:42:12;3.97;;;0.47;;
52512;SDS011;38422;53.172;6.974;2022-12-07T04:44:38;6.00;;;0.55;;
52512;SDS011;38422;53.172;6.974;2022-12-07T04:47:04;3.90;;;0.43;;
52512;SDS011;38422;53.172;6.974;2022-12-07T04:49:29;4.30;;;0.40;;
52512;SDS011;38422;53.172;6.974;2022-12-07T04:51:55;3.72;;;0.57;;
52512;SDS011;38422;53.172;6.974;2022-12-07T04:54:21;3.97;;;0.80;;
52512;SDS011;38422;53.172;6.974;2022-12-07T04:56:47;3.55;;;0.50;;
52512;SDS011;38422;53.172;6.974;2022-12-07T04:59:13;4.35;;;0.40;;
52512;SDS011;38422;53.172;6.974;2022-12-07T05:01:40;5.47;;;0.90;;
52512;SDS011;38422;53.172;6.974;2022-12-07T05:04:06;2.95;;;0.47;;
52512;SDS011;38422;53.172;6.974;2022-12-07T05:06:32;6.88;;;0.50;;
52512;SDS011;38422;53.172;6.974;2022-12-07T05:08:58;5.45;;;0.65;;
52512;SDS011;38422;53.172;6.974;2022-12-07T05:11:24;5.50;;;0.70;;
52512;SDS011;38422;53.172;6.974;2022-12-07T05:14:15;3.65;;;0.50;;
52512;SDS011;38422;53.172;6.974;2022-12-07T05:16:43;2.78;;;0.43;;
52512;SDS011;38422;53.172;6.974;2022-12-07T05:19:10;6.15;;;0.60;;
52512;SDS011;38422;53.172;6.974;2022-12-07T05:21:36;4.97;;;0.60;;
52512;SDS011;38422;53.172;6.974;2022-12-07T05:24:02;5.30;;;0.50;;
52512;SDS011;38422;53.172;6.974;2022-12-07T05:26:29;8.02;;;0.82;;
52512;SDS011;38422;53.172;6.974;2022-12-07T05:28:55;9.25;;;0.70;;
52512;SDS011;38422;53.172;6.974;2022-12-07T05:31:22;4.97;;;1.00;;
52512;SDS011;38422;53.172;6.974;2022-12-07T05:33:48;5.73;;;0.90;;
52512;SDS011;38422;53.172;6.974;2022-12-07T05:36:14;6.13;;;0.60;;
52512;SDS011;38422;53.172;6.974;2022-12-07T05:38:40;7.03;;;0.70;;
52512;SDS011;38422;53.172;6.974;2022-12-07T05:41:06;6.80;;;0.90;;
52512;SDS011;38422;53.172;6.974;2022-12-07T05:43:53;5.22;;;0.50;;
52512;SDS011;38422;53.172;6.974;2022-12-07T05:46:18;4.35;;;0.70;;
52512;SDS011;38422;53.172;6.974;2022-12-07T05:48:44;4.85;;;1.00;;
52512;SDS011;38422;53.172;6.974;2022-12-07T05:51:10;3.42;;;0.50;;
52512;SDS011;38422;53.172;6.974;2022-12-07T05:53:36;5.22;;;0.63;;
52512;SDS011;38422;53.172;6.974;2022-12-07T05:56:01;7.22;;;0.68;;
52512;SDS011;38422;53.172;6.974;2022-12-07T05:58:27;5.18;;;0.50;;
52512;SDS011;38422;53.172;6.974;2022-12-07T06:01:11;4.82;;;0.73;;
52512;SDS011;38422;53.172;6.974;2022-12-07T06:03:37;4.53;;;0.55;;
52512;SDS011;38422;53.172;6.974;2022-12-07T06:06:02;7.00;;;0.57;;
52512;SDS011;38422;53.172;6.974;2022-12-07T06:08:28;2.80;;;0.50;;
52512;SDS011;38422;53.172;6.974;2022-12-07T06:10:54;4.25;;;0.57;;
52512;SDS011;38422;53.172;6.974;2022-12-07T06:13:39;5.65;;;0.50;;
52512;SDS011;38422;53.172;6.974;2022-12-07T06:16:05;7.47;;;0.65;;
52512;SDS011;38422;53.172;6.974;2022-12-07T06:18:31;6.25;;;0.75;;
52512;SDS011;38422;53.172;6.974;2022-12-07T06:20:57;7.30;;;1.00;;
52512;SDS011;38422;53.172;6.974;2022-12-07T06:23:22;5.38;;;0.70;;
52512;SDS011;38422;53.172;6.974;2022-12-07T06:25:48;3.53;;;0.50;;
52512;SDS011;38422;53.172;6.974;2022-12-07T06:28:14;4.20;;;0.52;;
52512;SDS011;38422;53.172;6.974;2022-12-07T06:30:39;4.78;;;0.80;;
52512;SDS011;38422;53.172;6.974;2022-12-07T06:33:05;6.32;;;0.70;;
52512;SDS011;38422;53.172;6.974;2022-12-07T06:35:32;4.20;;;0.77;;
52512;SDS011;38422;53.172;6.974;2022-12-07T06:37:58;8.07;;;0.80;;
52512;SDS011;38422;53.172;6.974;2022-12-07T06:40:24;9.70;;;0.80;;
52512;SDS011;38422;53.172;6.974;2022-12-07T06:42:50;8.18;;;1.00;;
52512;SDS011;38422;53.172;6.974;2022-12-07T06:45:15;11.27;;;1.00;;
52512;SDS011;38422;53.172;6.974;2022-12-07T06:47:41;9.95;;;1.23;;
52512;SDS011;38422;53.172;6.974;2022-12-07T06:50:07;10.93;;;1.13;;
52512;SDS011;38422;53.172;6.974;2022-12-07T06:52:33;6.18;;;1.02;;
52512;SDS011;38422;53.172;6.974;2022-12-07T06:54:59;9.85;;;1.10;;
52512;SDS011;38422;53.172;6.974;2022-12-07T06:57:25;9.80;;;0.93;;
52512;SDS011;38422;53.172;6.974;2022-12-07T06:59:51;9.73;;;1.50;;
52512;SDS011;38422;53.172;6.974;2022-12-07T07:02:17;9.93;;;1.17;;
52512;SDS011;38422;53.172;6.974;2022-12-07T07:04:43;8.40;;;1.08;;
52512;SDS011;38422;53.172;6.974;2022-12-07T07:07:08;7.00;;;0.82;;
52512;SDS011;38422;53.172;6.974;2022-12-07T07:09:34;8.07;;;1.15;;
52512;SDS011;38422;53.172;6.974;2022-12-07T07:12:00;8.27;;;1.38;;
52512;SDS011;38422;53.172;6.974;2022-12-07T07:14:26;5.05;;;0.70;;
52512;SDS011;38422;53.172;6.974;2022-12-07T07:16:51;4.90;;;0.93;;
52512;SDS011;38422;53.172;6.974;2022-12-07T07:19:17;5.10;;;0.80;;
52512;SDS011;38422;53.172;6.974;2022-12-07T07:21:43;7.78;;;0.90;;
52512;SDS011;38422;53.172;6.974;2022-12-07T07:24:09;4.00;;;0.70;;
52512;SDS011;38422;53.172;6.974;2022-12-07T07:26:35;7.80;;;1.08;;
52512;SDS011;38422;53.172;6.974;2022-12-07T07:29:00;7.85;;;0.82;;
52512;SDS011;38422;53.172;6.974;2022-12-07T07:31:27;8.63;;;1.27;;
52512;SDS011;38422;53.172;6.974;2022-12-07T07:33:52;10.50;;;0.93;;
52512;SDS011;38422;53.172;6.974;2022-12-07T07:36:18;6.50;;;1.08;;
52512;SDS011;38422;53.172;6.974;2022-12-07T07:38:43;9.48;;;1.10;;
52512;SDS011;38422;53.172;6.974;2022-12-07T07:41:09;7.53;;;1.02;;
52512;SDS011;38422;53.172;6.974;2022-12-07T07:43:35;6.40;;;0.80;;
52512;SDS011;38422;53.172;6.974;2022-12-07T07:46:00;7.18;;;0.90;;
52512;SDS011;38422;53.172;6.974;2022-12-07T07:48:26;7.18;;;0.98;;
52512;SDS011;38422;53.172;6.974;2022-12-07T07:50:52;6.43;;;0.90;;
52512;SDS011;38422;53.172;6.974;2022-12-07T07:53:17;7.00;;;0.93;;
52512;SDS011;38422;53.172;6.974;2022-12-07T07:55:50;8.98;;;1.00;;
52512;SDS011;38422;53.172;6.974;2022-12-07T07:58:17;5.20;;;0.77;;
52512;SDS011;38422;53.172;6.974;2022-12-07T08:00:43;6.82;;;0.70;;
52512;SDS011;38422;53.172;6.974;2022-12-07T08:03:08;7.90;;;0.80;;
52512;SDS011;38422;53.172;6.974;2022-12-07T08:05:34;6.40;;;0.98;;
52512;SDS011;38422;53.172;6.974;2022-12-07T08:08:02;5.00;;;0.90;;
52512;SDS011;38422;53.172;6.974;2022-12-07T08:10:28;5.95;;;0.88;;
52512;SDS011;38422;53.172;6.974;2022-12-07T08:12:54;8.15;;;0.77;;
52512;SDS011;38422;53.172;6.974;2022-12-07T08:15:38;8.73;;;1.00;;
52512;SDS011;38422;53.172;6.974;2022-12-07T08:18:06;7.82;;;1.40;;
52512;SDS011;38422;53.172;6.974;2022-12-07T08:20:32;5.50;;;0.80;;
52512;SDS011;38422;53.172;6.974;2022-12-07T08:22:59;6.18;;;0.80;;
52512;SDS011;38422;53.172;6.974;2022-12-07T08:25:26;5.93;;;0.85;;
52512;SDS011;38422;53.172;6.974;2022-12-07T08:27:52;7.63;;;0.75;;
52512;SDS011;38422;53.172;6.974;2022-12-07T08:30:19;7.93;;;0.85;;
52512;SDS011;38422;53.172;6.974;2022-12-07T08:32:45;6.35;;;0.77;;
52512;SDS011;38422;53.172;6.974;2022-12-07T08:35:12;8.70;;;0.80;;
52512;SDS011;38422;53.172;6.974;2022-12-07T08:37:39;6.97;;;0.82;;
52512;SDS011;38422;53.172;6.974;2022-12-07T08:40:06;8.90;;;1.10;;
52512;SDS011;38422;53.172;6.974;2022-12-07T08:47:30;11.98;;;2.58;;
52512;SDS011;38422;53.172;6.974;2022-12-07T08:49:57;9.02;;;2.00;;
52512;SDS011;38422;53.172;6.974;2022-12-07T08:52:28;4.78;;;1.25;;
52512;SDS011;38422;53.172;6.974;2022-12-07T08:54:55;13.20;;;1.83;;
52512;SDS011;38422;53.172;6.974;2022-12-07T08:57:21;8.07;;;1.35;;
52512;SDS011;38422;53.172;6.974;2022-12-07T08:59:47;11.95;;;2.60;;
52512;SDS011;38422;53.172;6.974;2022-12-07T09:02:13;7.35;;;1.90;;
52512;SDS011;38422;53.172;6.974;2022-12-07T09:04:38;6.65;;;1.80;;
52512;SDS011;38422;53.172;6.974;2022-12-07T09:07:04;9.25;;;1.13;;
52512;SDS011;38422;53.172;6.974;2022-12-07T09:09:31;5.87;;;1.30;;
52512;SDS011;38422;53.172;6.974;2022-12-07T09:11:56;11.40;;;1.90;;
52512;SDS011;38422;53.172;6.974;2022-12-07T09:14:22;10.27;;;1.52;;
52512;SDS011;38422;53.172;6.974;2022-12-07T09:16:48;7.70;;;1.38;;
52512;SDS011;38422;53.172;6.974;2022-12-07T09:19:14;6.80;;;0.95;;
52512;SDS011;38422;53.172;6.974;2022-12-07T09:21:40;8.25;;;1.75;;
52512;SDS011;38422;53.172;6.974;2022-12-07T09:24:05;6.15;;;1.70;;
52512;SDS011;38422;53.172;6.974;2022-12-07T09:26:31;7.45;;;1.40;;
52512;SDS011;38422;53.172;6.974;2022-12-07T09:28:57;7.28;;;1.23;;
52512;SDS011;38422;53.172;6.974;2022-12-07T09:31:22;7.30;;;1.10;;
52512;SDS011;38422;53.172;6.974;2022-12-07T09:33:52;9.30;;;1.00;;
52512;SDS011;38422;53.172;6.974;2022-12-07T09:36:22;7.70;;;1.17;;
52512;SDS011;38422;53.172;6.974;2022-12-07T09:38:48;6.45;;;0.82;;
52512;SDS011;38422;53.172;6.974;2022-12-07T09:41:14;9.38;;;1.00;;
52512;SDS011;38422;53.172;6.974;2022-12-07T09:43:40;6.35;;;1.05;;
52512;SDS011;38422;53.172;6.974;2022-12-07T09:46:08;4.57;;;0.82;;
52512;SDS011;38422;53.172;6.974;2022-12-07T09:48:38;7.35;;;1.10;;
52512;SDS011;38422;53.172;6.974;2022-12-07T09:51:19;6.00;;;0.70;;
52512;SDS011;38422;53.172;6.974;2022-12-07T09:53:49;8.88;;;0.93;;
52512;SDS011;38422;53.172;6.974;2022-12-07T09:56:17;8.38;;;1.10;;
52512;SDS011;38422;53.172;6.974;2022-12-07T10:01:20;10.25;;;1.25;;
52512;SDS011;38422;53.172;6.974;2022-12-07T10:03:53;7.78;;;1.10;;
52512;SDS011;38422;53.172;6.974;2022-12-07T10:06:21;8.82;;;0.90;;
52512;SDS011;38422;53.172;6.974;2022-12-07T10:08:47;8.05;;;1.10;;
52512;SDS011;38422;53.172;6.974;2022-12-07T10:11:13;11.45;;;1.40;;
52512;SDS011;38422;53.172;6.974;2022-12-07T10:14:10;8.57;;;1.25;;
52512;SDS011;38422;53.172;6.974;2022-12-07T10:16:38;9.57;;;1.25;;
52512;SDS011;38422;53.172;6.974;2022-12-07T10:19:19;7.35;;;1.23;;
52512;SDS011;38422;53.172;6.974;2022-12-07T10:22:07;11.30;;;1.92;;
52512;SDS011;38422;53.172;6.974;2022-12-07T10:24:39;6.70;;;1.88;;
52512;SDS011;38422;53.172;6.974;2022-12-07T10:27:21;9.23;;;1.67;;
52512;SDS011;38422;53.172;6.974;2022-12-07T10:29:52;8.95;;;1.60;;
52512;SDS011;38422;53.172;6.974;2022-12-07T10:34:44;7.95;;;1.00;;
52512;SDS011;38422;53.172;6.974;2022-12-07T10:39:54;5.78;;;0.80;;
52512;SDS011;38422;53.172;6.974;2022-12-07T10:42:22;7.75;;;1.00;;
52512;SDS011;38422;53.172;6.974;2022-12-07T10:45:06;7.85;;;0.98;;
52512;SDS011;38422;53.172;6.974;2022-12-07T10:47:40;6.72;;;1.20;;
52512;SDS011;38422;53.172;6.974;2022-12-07T10:50:22;3.67;;;0.98;;
52512;SDS011;38422;53.172;6.974;2022-12-07T10:55:31;7.00;;;1.10;;
52512;SDS011;38422;53.172;6.974;2022-12-07T10:58:24;10.70;;;1.38;;
52512;SDS011;38422;53.172;6.974;2022-12-07T11:06:37;7.13;;;0.83;;
52512;SDS011;38422;53.172;6.974;2022-12-07T11:12:09;4.53;;;0.70;;
52512;SDS011;38422;53.172;6.974;2022-12-07T11:22:47;6.50;;;0.80;;
52512;SDS011;38422;53.172;6.974;2022-12-07T11:33:50;4.85;;;0.40;;
52512;SDS011;38422;53.172;6.974;2022-12-07T11:36:33;6.85;;;0.70;;
52512;SDS011;38422;53.172;6.974;2022-12-07T11:41:44;6.78;;;1.08;;
52512;SDS011;38422;53.172;6.974;2022-12-07T11:44:33;6.57;;;0.77;;
52512;SDS011;38422;53.172;6.974;2022-12-07T11:47:48;9.77;;;1.05;;
52512;SDS011;38422;53.172;6.974;2022-12-07T11:49:54;8.57;;;1.30;;
52512;SDS011;38422;53.172;6.974;2022-12-07T11:52:33;9.57;;;2.35;;
52512;SDS011;38422;53.172;6.974;2022-12-07T11:55:05;7.05;;;1.08;;
52512;SDS011;38422;53.172;6.974;2022-12-07T11:57:44;8.13;;;1.17;;
52512;SDS011;38422;53.172;6.974;2022-12-07T12:00:14;7.95;;;0.90;;
52512;SDS011;38422;53.172;6.974;2022-12-07T12:03:01;5.97;;;0.90;;
52512;SDS011;38422;53.172;6.974;2022-12-07T12:05:34;9.77;;;1.00;;
52512;SDS011;38422;53.172;6.974;2022-12-07T12:08:12;9.05;;;1.02;;
52512;SDS011;38422;53.172;6.974;2022-12-07T12:13:14;5.00;;;1.45;;
52512;SDS011;38422;53.172;6.974;2022-12-07T12:21:29;3.80;;;0.77;;
52512;SDS011;38422;53.172;6.974;2022-12-07T12:24:11;5.95;;;1.20;;
52512;SDS011;38422;53.172;6.974;2022-12-07T12:26:41;6.55;;;0.90;;
52512;SDS011;38422;53.172;6.974;2022-12-07T12:29:28;4.97;;;0.70;;
52512;SDS011;38422;53.172;6.974;2022-12-07T12:37:50;5.20;;;1.10;;
52512;SDS011;38422;53.172;6.974;2022-12-07T12:42:47;3.97;;;0.90;;
52512;SDS011;38422;53.172;6.974;2022-12-07T12:45:49;5.93;;;0.90;;
52512;SDS011;38422;53.172;6.974;2022-12-07T12:48:29;6.53;;;0.98;;
52512;SDS011;38422;53.172;6.974;2022-12-07T12:54:04;8.60;;;1.20;;
52512;SDS011;38422;53.172;6.974;2022-12-07T12:56:43;6.93;;;0.95;;
52512;SDS011;38422;53.172;6.974;2022-12-07T13:01:47;7.28;;;1.17;;
52512;SDS011;38422;53.172;6.974;2022-12-07T13:04:56;5.97;;;0.90;;
52512;SDS011;38422;53.172;6.974;2022-12-07T13:07:47;7.05;;;1.25;;
52512;SDS011;38422;53.172;6.974;2022-12-07T13:15:51;6.65;;;1.10;;
52512;SDS011;38422;53.172;6.974;2022-12-07T13:18:37;6.72;;;0.93;;
52512;SDS011;38422;53.172;6.974;2022-12-07T13:23:35;4.65;;;0.88;;
52512;SDS011;38422;53.172;6.974;2022-12-07T13:26:18;7.13;;;1.35;;
52512;SDS011;38422;53.172;6.974;2022-12-07T13:31:35;7.15;;;0.70;;
52512;SDS011;38422;53.172;6.974;2022-12-07T13:34:28;4.43;;;0.77;;
52512;SDS011;38422;53.172;6.974;2022-12-07T13:39:44;9.52;;;1.73;;
52512;SDS011;38422;53.172;6.974;2022-12-07T13:42:31;5.93;;;1.00;;
52512;SDS011;38422;53.172;6.974;2022-12-07T13:44:58;4.20;;;0.98;;
52512;SDS011;38422;53.172;6.974;2022-12-07T13:50:26;4.90;;;1.00;;
52512;SDS011;38422;53.172;6.974;2022-12-07T13:52:55;8.75;;;1.48;;
52512;SDS011;38422;53.172;6.974;2022-12-07T13:55:22;8.85;;;3.00;;
52512;SDS011;38422;53.172;6.974;2022-12-07T13:57:49;10.98;;;5.53;;
52512;SDS011;38422;53.172;6.974;2022-12-07T14:00:21;9.32;;;4.68;;
52512;SDS011;38422;53.172;6.974;2022-12-07T14:02:56;7.80;;;3.58;;
52512;SDS011;38422;53.172;6.974;2022-12-07T14:05:45;4.75;;;1.52;;
52512;SDS011;38422;53.172;6.974;2022-12-07T14:16:05;8.13;;;1.20;;
52512;SDS011;38422;53.172;6.974;2022-12-07T14:18:56;41.78;;;3.20;;
52512;SDS011;38422;53.172;6.974;2022-12-07T14:21:24;4.15;;;1.30;;
52512;SDS011;38422;53.172;6.974;2022-12-07T14:26:43;6.68;;;1.63;;
52512;SDS011;38422;53.172;6.974;2022-12-07T14:29:28;6.20;;;2.05;;
52512;SDS011;38422;53.172;6.974;2022-12-07T14:31:56;3.40;;;0.73;;
52512;SDS011;38422;53.172;6.974;2022-12-07T14:36:50;5.68;;;1.02;;
52512;SDS011;38422;53.172;6.974;2022-12-07T14:39:16;5.28;;;0.80;;
52512;SDS011;38422;53.172;6.974;2022-12-07T14:41:41;4.20;;;0.65;;
52512;SDS011;38422;53.172;6.974;2022-12-07T14:44:16;4.05;;;0.50;;
52512;SDS011;38422;53.172;6.974;2022-12-07T14:46:43;5.32;;;0.80;;
52512;SDS011;38422;53.172;6.974;2022-12-07T14:49:09;4.28;;;0.63;;
52512;SDS011;38422;53.172;6.974;2022-12-07T14:51:36;3.97;;;0.50;;
52512;SDS011;38422;53.172;6.974;2022-12-07T14:54:05;4.45;;;0.55;;
52512;SDS011;38422;53.172;6.974;2022-12-07T14:56:34;4.72;;;0.65;;
52512;SDS011;38422;53.172;6.974;2022-12-07T14:59:00;2.72;;;0.70;;
52512;SDS011;38422;53.172;6.974;2022-12-07T15:01:25;2.95;;;0.65;;
52512;SDS011;38422;53.172;6.974;2022-12-07T15:03:51;3.00;;;0.80;;
52512;SDS011;38422;53.172;6.974;2022-12-07T15:06:18;4.10;;;1.15;;
52512;SDS011;38422;53.172;6.974;2022-12-07T15:08:44;5.20;;;0.90;;
52512;SDS011;38422;53.172;6.974;2022-12-07T15:11:13;4.15;;;0.90;;
52512;SDS011;38422;53.172;6.974;2022-12-07T15:13:40;3.38;;;0.90;;
52512;SDS011;38422;53.172;6.974;2022-12-07T15:16:24;3.47;;;0.88;;
52512;SDS011;38422;53.172;6.974;2022-12-07T15:18:50;3.05;;;0.60;;
52512;SDS011;38422;53.172;6.974;2022-12-07T15:21:16;3.15;;;0.70;;
52512;SDS011;38422;53.172;6.974;2022-12-07T15:23:42;3.67;;;0.60;;
52512;SDS011;38422;53.172;6.974;2022-12-07T15:26:09;5.40;;;0.80;;
52512;SDS011;38422;53.172;6.974;2022-12-07T15:31:01;4.95;;;0.80;;
52512;SDS011;38422;53.172;6.974;2022-12-07T15:33:26;3.70;;;1.20;;
52512;SDS011;38422;53.172;6.974;2022-12-07T15:35:52;5.90;;;1.25;;
52512;SDS011;38422;53.172;6.974;2022-12-07T15:38:18;5.07;;;1.40;;
52512;SDS011;38422;53.172;6.974;2022-12-07T15:40:46;7.13;;;2.10;;
52512;SDS011;38422;53.172;6.974;2022-12-07T15:43:12;4.25;;;1.30;;
52512;SDS011;38422;53.172;6.974;2022-12-07T15:45:56;4.07;;;1.60;;
52512;SDS011;38422;53.172;6.974;2022-12-07T15:48:22;6.95;;;1.98;;
52512;SDS011;38422;53.172;6.974;2022-12-07T15:50:48;7.05;;;2.35;;
52512;SDS011;38422;53.172;6.974;2022-12-07T15:53:14;7.07;;;2.00;;
52512;SDS011;38422;53.172;6.974;2022-12-07T15:55:39;7.25;;;3.00;;
52512;SDS011;38422;53.172;6.974;2022-12-07T15:58:06;7.38;;;2.95;;
52512;SDS011;38422;53.172;6.974;2022-12-07T16:00:32;9.40;;;2.75;;
52512;SDS011;38422;53.172;6.974;2022-12-07T16:02:57;4.97;;;1.52;;
52512;SDS011;38422;53.172;6.974;2022-12-07T16:05:23;5.18;;;1.25;;
52512;SDS011;38422;53.172;6.974;2022-12-07T16:07:49;6.78;;;2.60;;
52512;SDS011;38422;53.172;6.974;2022-12-07T16:10:16;9.88;;;2.13;;
52512;SDS011;38422;53.172;6.974;2022-12-07T16:12:41;5.85;;;1.40;;
52512;SDS011;38422;53.172;6.974;2022-12-07T16:15:07;7.85;;;1.42;;
52512;SDS011;38422;53.172;6.974;2022-12-07T16:17:33;4.80;;;1.42;;
52512;SDS011;38422;53.172;6.974;2022-12-07T16:19:59;4.25;;;1.20;;
52512;SDS011;38422;53.172;6.974;2022-12-07T16:22:25;7.47;;;1.60;;
52512;SDS011;38422;53.172;6.974;2022-12-07T16:24:50;3.97;;;1.10;;
52512;SDS011;38422;53.172;6.974;2022-12-07T16:27:16;3.33;;;0.80;;
52512;SDS011;38422;53.172;6.974;2022-12-07T16:29:42;2.40;;;0.70;;
52512;SDS011;38422;53.172;6.974;2022-12-07T16:32:07;4.43;;;0.93;;
52512;SDS011;38422;53.172;6.974;2022-12-07T16:34:33;5.88;;;1.60;;
52512;SDS011;38422;53.172;6.974;2022-12-07T16:36:59;3.47;;;0.90;;
52512;SDS011;38422;53.172;6.974;2022-12-07T16:39:24;5.70;;;1.30;;
52512;SDS011;38422;53.172;6.974;2022-12-07T16:41:50;7.15;;;1.55;;
52512;SDS011;38422;53.172;6.974;2022-12-07T16:44:17;5.72;;;2.75;;
52512;SDS011;38422;53.172;6.974;2022-12-07T16:46:43;7.60;;;3.20;;
52512;SDS011;38422;53.172;6.974;2022-12-07T16:49:12;8.48;;;3.45;;
52512;SDS011;38422;53.172;6.974;2022-12-07T16:51:39;7.78;;;2.58;;
52512;SDS011;38422;53.172;6.974;2022-12-07T16:54:06;9.05;;;3.70;;
52512;SDS011;38422;53.172;6.974;2022-12-07T16:56:33;5.78;;;1.73;;
52512;SDS011;38422;53.172;6.974;2022-12-07T16:58:59;7.68;;;1.88;;